Time;durP1;ratioP1;P1;durP2;ratioP2;P2;SDS_P1;SDS_P2;PMS_P1;PMS_P2;Temp;Humidity;BMP_temperature;BMP_pressure;BME280_temperature;BME280_humidity;BME280_pressure;Samples;Min_cycle;Max_cycle;Signal;HPM_P1;HPM_P2
2023/12/14 00:01:24;;;;;;;9.70;2.92;;;;;;;;;;5047850;28;20495;-66
2023/12/14 00:03:50;;;;;;;5.05;2.40;;;;;;;;;;5052171;28;20083;-66
2023/12/14 00:06:15;;;;;;;10.70;3.88;;;;;;;;;;5050616;28;20474;-66
2023/12/14 00:08:40;;;;;;;5.57;2.30;;;;;;;;;;5048641;28;20124;-66
2023/12/14 00:11:07;;;;;;;7.43;3.25;;;;;;;;;;5049572;28;20607;-66
2023/12/14 00:13:33;;;;;;;10.20;3.10;;;;;;;;;;5050817;28;20045;-66
2023/12/14 00:15:58;;;;;;;7.53;2.90;;;;;;;;;;5058786;28;20397;-67
2023/12/14 00:18:24;;;;;;;10.13;3.03;;;;;;;;;;5049549;28;20469;-67
2023/12/14 00:20:49;;;;;;;14.40;3.03;;;;;;;;;;5049912;28;20127;-66
2023/12/14 00:23:14;;;;;;;12.95;2.70;;;;;;;;;;5054244;28;20067;-66
2023/12/14 00:25:40;;;;;;;4.38;2.25;;;;;;;;;;5053802;28;20420;-66
2023/12/14 00:28:05;;;;;;;6.15;2.67;;;;;;;;;;5049802;28;20107;-66
2023/12/14 00:30:30;;;;;;;7.82;3.33;;;;;;;;;;5056885;28;20397;-66
2023/12/14 00:32:56;;;;;;;5.22;3.13;;;;;;;;;;5051797;28;20377;-66
2023/12/14 00:35:21;;;;;;;8.30;2.75;;;;;;;;;;5056565;28;20045;-66
2023/12/14 00:37:46;;;;;;;7.35;2.58;;;;;;;;;;5046670;28;20057;-66
2023/12/14 00:40:12;;;;;;;4.80;2.08;;;;;;;;;;5037196;28;20040;-66
2023/12/14 00:42:37;;;;;;;6.15;2.78;;;;;;;;;;5052025;28;20495;-66
2023/12/14 00:45:03;;;;;;;6.63;3.13;;;;;;;;;;5049909;28;20040;-66
2023/12/14 00:47:28;;;;;;;6.43;2.50;;;;;;;;;;5049112;28;20587;-67
2023/12/14 00:49:53;;;;;;;4.18;2.50;;;;;;;;;;5049718;28;20065;-66
2023/12/14 00:52:19;;;;;;;4.50;2.70;;;;;;;;;;5051436;28;20029;-66
2023/12/14 00:54:44;;;;;;;8.95;3.40;;;;;;;;;;5049571;28;20451;-66
2023/12/14 00:57:09;;;;;;;7.70;3.10;;;;;;;;;;5053165;28;20403;-66
2023/12/14 00:59:35;;;;;;;8.57;2.50;;;;;;;;;;5049527;28;20485;-66
2023/12/14 01:02:00;;;;;;;4.22;2.33;;;;;;;;;;5055494;28;20404;-66
2023/12/14 01:04:25;;;;;;;4.53;2.75;;;;;;;;;;5049603;28;20421;-66
2023/12/14 01:06:51;;;;;;;4.47;2.33;;;;;;;;;;5057422;28;20615;-67
2023/12/14 01:09:16;;;;;;;4.55;2.70;;;;;;;;;;5058078;28;20557;-66
2023/12/14 01:11:41;;;;;;;4.00;2.15;;;;;;;;;;5060386;28;20536;-66
2023/12/14 01:14:07;;;;;;;5.22;2.75;;;;;;;;;;5060815;28;20522;-66
2023/12/14 01:16:32;;;;;;;2.85;1.88;;;;;;;;;;5056451;28;20164;-66
2023/12/14 01:18:57;;;;;;;5.43;2.17;;;;;;;;;;5051217;28;20111;-67
2023/12/14 01:21:23;;;;;;;4.28;2.45;;;;;;;;;;5054906;28;20065;-66
2023/12/14 01:23:49;;;;;;;10.07;2.92;;;;;;;;;;5053092;28;20025;-66
2023/12/14 01:26:14;;;;;;;11.93;3.00;;;;;;;;;;5052641;28;20083;-66
2023/12/14 01:28:39;;;;;;;5.55;2.80;;;;;;;;;;5053195;28;20037;-66
2023/12/14 01:31:05;;;;;;;6.00;2.95;;;;;;;;;;5049950;28;20060;-67
2023/12/14 01:33:30;;;;;;;8.57;2.80;;;;;;;;;;5053028;28;20131;-66
2023/12/14 01:35:55;;;;;;;8.43;2.55;;;;;;;;;;5062220;28;20095;-67
2023/12/14 01:38:21;;;;;;;5.88;2.50;;;;;;;;;;5053226;28;20045;-66
2023/12/14 01:40:46;;;;;;;5.07;2.53;;;;;;;;;;5052354;28;20036;-66
2023/12/14 01:43:12;;;;;;;11.43;2.63;;;;;;;;;;5059885;28;20043;-66
2023/12/14 01:45:37;;;;;;;4.70;2.50;;;;;;;;;;5052519;28;20031;-66
2023/12/14 01:48:04;;;;;;;9.95;3.00;;;;;;;;;;5055038;28;20032;-67
2023/12/14 01:50:29;;;;;;;7.70;2.88;;;;;;;;;;5051283;28;20033;-66
2023/12/14 01:52:54;;;;;;;8.65;2.97;;;;;;;;;;5052434;28;20396;-66
2023/12/14 01:55:20;;;;;;;14.50;4.18;;;;;;;;;;5052523;28;20075;-67
2023/12/14 01:57:45;;;;;;;8.23;2.88;;;;;;;;;;5050714;28;20036;-66
2023/12/14 02:00:20;;;;;;;11.57;2.50;;;;;;;;;;5057370;28;20067;-67
2023/12/14 02:02:45;;;;;;;14.75;3.33;;;;;;;;;;5050558;28;20041;-66
2023/12/14 02:05:10;;;;;;;5.35;2.10;;;;;;;;;;5052152;28;20183;-67
2023/12/14 02:07:36;;;;;;;4.15;2.25;;;;;;;;;;5052493;28;20039;-65
2023/12/14 02:10:01;;;;;;;10.40;2.63;;;;;;;;;;5052248;28;20041;-66
2023/12/14 02:12:26;;;;;;;8.10;2.33;;;;;;;;;;5052127;28;20546;-66
2023/12/14 02:14:52;;;;;;;10.40;2.53;;;;;;;;;;5051692;28;20041;-66
2023/12/14 02:17:17;;;;;;;14.73;3.30;;;;;;;;;;5051308;28;20045;-66
2023/12/14 02:19:42;;;;;;;10.15;2.72;;;;;;;;;;5052186;28;20067;-66
2023/12/14 02:22:08;;;;;;;6.95;2.72;;;;;;;;;;5051607;28;20032;-66
2023/12/14 02:24:33;;;;;;;10.85;2.95;;;;;;;;;;5050622;28;20121;-66
2023/12/14 02:26:58;;;;;;;10.43;2.90;;;;;;;;;;5054640;28;20116;-66
2023/12/14 02:29:24;;;;;;;13.65;3.42;;;;;;;;;;5060332;28;20032;-67
2023/12/14 02:31:49;;;;;;;5.82;2.53;;;;;;;;;;5050624;28;20045;-67
2023/12/14 02:34:14;;;;;;;6.93;3.30;;;;;;;;;;5053331;28;20385;-66
2023/12/14 02:36:40;;;;;;;9.88;3.38;;;;;;;;;;5049903;28;20028;-67
2023/12/14 02:39:05;;;;;;;6.80;3.20;;;;;;;;;;5051000;28;20052;-66
2023/12/14 02:41:30;;;;;;;6.90;3.40;;;;;;;;;;5055772;28;20047;-67
2023/12/14 02:43:56;;;;;;;12.23;3.65;;;;;;;;;;5051592;28;20029;-68
2023/12/14 02:46:21;;;;;;;11.32;3.63;;;;;;;;;;5051550;28;20068;-66
2023/12/14 02:48:47;;;;;;;9.98;3.38;;;;;;;;;;5051586;28;20036;-66
2023/12/14 02:51:14;;;;;;;11.68;3.97;;;;;;;;;;5050946;28;20086;-66
2023/12/14 02:53:39;;;;;;;14.20;3.58;;;;;;;;;;5053271;28;20534;-66
2023/12/14 02:56:05;;;;;;;16.10;3.33;;;;;;;;;;5054714;28;20036;-67
2023/12/14 02:58:30;;;;;;;14.45;3.88;;;;;;;;;;5048592;28;20040;-66
2023/12/14 03:00:56;;;;;;;10.50;3.55;;;;;;;;;;5049647;28;20637;-67
2023/12/14 03:03:21;;;;;;;10.95;3.28;;;;;;;;;;5051570;28;20111;-67
2023/12/14 03:05:46;;;;;;;8.55;3.30;;;;;;;;;;5058751;28;20100;-66
2023/12/14 03:08:12;;;;;;;13.20;3.40;;;;;;;;;;5049789;28;20128;-66
2023/12/14 03:10:37;;;;;;;15.90;3.72;;;;;;;;;;5056831;28;20436;-66
2023/12/14 03:13:02;;;;;;;8.57;2.97;;;;;;;;;;5050732;28;20535;-67
2023/12/14 03:15:28;;;;;;;11.52;3.13;;;;;;;;;;5056061;28;20037;-67
2023/12/14 03:17:53;;;;;;;5.55;2.70;;;;;;;;;;5050466;28;20025;-67
2023/12/14 03:20:18;;;;;;;6.15;2.75;;;;;;;;;;5052667;28;20033;-66
2023/12/14 03:22:44;;;;;;;13.07;3.67;;;;;;;;;;5046803;28;20399;-66
2023/12/14 03:25:10;;;;;;;12.45;3.03;;;;;;;;;;5052006;28;20480;-67
2023/12/14 03:27:35;;;;;;;8.23;2.67;;;;;;;;;;5050426;28;20039;-66
2023/12/14 03:30:00;;;;;;;8.48;3.58;;;;;;;;;;5055969;28;20040;-66
2023/12/14 03:32:26;;;;;;;7.53;2.72;;;;;;;;;;5050490;28;20442;-67
2023/12/14 03:34:51;;;;;;;6.68;2.72;;;;;;;;;;5053245;28;20067;-67
2023/12/14 03:37:16;;;;;;;7.20;3.15;;;;;;;;;;5052870;28;20067;-66
2023/12/14 03:39:42;;;;;;;14.25;3.55;;;;;;;;;;5050313;28;20037;-66
2023/12/14 03:42:07;;;;;;;10.02;2.88;;;;;;;;;;5051058;28;20029;-66
2023/12/14 03:44:32;;;;;;;8.20;2.55;;;;;;;;;;5050075;28;20041;-67
2023/12/14 03:46:59;;;;;;;15.85;2.75;;;;;;;;;;5049761;28;20044;-66
2023/12/14 03:49:25;;;;;;;15.52;3.55;;;;;;;;;;5050216;28;20107;-66
2023/12/14 03:51:50;;;;;;;8.93;3.20;;;;;;;;;;5048961;28;20112;-66
2023/12/14 03:54:15;;;;;;;19.17;3.38;;;;;;;;;;5050524;28;20121;-66
2023/12/14 03:56:41;;;;;;;10.07;3.10;;;;;;;;;;5050022;28;20060;-67
2023/12/14 03:59:07;;;;;;;18.20;3.47;;;;;;;;;;5054573;28;20115;-67
2023/12/14 04:01:33;;;;;;;9.50;3.50;;;;;;;;;;5056750;28;20044;-66
2023/12/14 04:03:58;;;;;;;11.50;3.33;;;;;;;;;;5048748;28;20104;-67
2023/12/14 04:06:24;;;;;;;9.25;3.75;;;;;;;;;;5052788;28;20136;-67
2023/12/14 04:08:49;;;;;;;11.85;3.25;;;;;;;;;;5050042;28;20147;-66
2023/12/14 04:11:14;;;;;;;13.10;3.22;;;;;;;;;;5049847;28;20037;-67
2023/12/14 04:13:40;;;;;;;16.65;3.22;;;;;;;;;;5049971;28;20094;-66
2023/12/14 04:16:06;;;;;;;11.38;4.10;;;;;;;;;;5053248;28;20037;-66
2023/12/14 04:18:31;;;;;;;10.43;3.40;;;;;;;;;;5056115;28;20029;-66
2023/12/14 04:20:56;;;;;;;7.95;3.28;;;;;;;;;;5051028;28;20072;-66
2023/12/14 04:23:22;;;;;;;9.52;3.92;;;;;;;;;;5046143;28;20041;-66
2023/12/14 04:25:47;;;;;;;11.63;3.42;;;;;;;;;;5050057;28;20566;-66
2023/12/14 04:28:12;;;;;;;16.33;3.55;;;;;;;;;;5050069;28;20041;-65
2023/12/14 04:30:38;;;;;;;16.00;5.03;;;;;;;;;;5053524;28;20041;-66
2023/12/14 04:33:03;;;;;;;10.30;4.07;;;;;;;;;;5052009;28;20058;-67
2023/12/14 04:35:28;;;;;;;7.13;3.42;;;;;;;;;;5049933;28;20047;-66
2023/12/14 04:37:54;;;;;;;12.00;4.07;;;;;;;;;;5049368;28;20033;-66
2023/12/14 04:40:19;;;;;;;9.98;3.10;;;;;;;;;;5052595;28;20066;-66
2023/12/14 04:42:45;;;;;;;15.70;3.97;;;;;;;;;;5051023;28;20048;-67
2023/12/14 04:45:10;;;;;;;12.07;3.05;;;;;;;;;;5049690;28;20051;-67
2023/12/14 04:47:36;;;;;;;9.02;3.13;;;;;;;;;;5039472;28;20029;-66
2023/12/14 04:50:02;;;;;;;12.27;2.97;;;;;;;;;;5053674;28;20700;-66
2023/12/14 04:52:27;;;;;;;11.15;3.47;;;;;;;;;;5057138;28;20036;-66
2023/12/14 04:54:53;;;;;;;5.78;1.83;;;;;;;;;;5054060;28;20032;-66
2023/12/14 04:57:18;;;;;;;12.43;2.70;;;;;;;;;;5053339;28;20037;-66
2023/12/14 04:59:43;;;;;;;9.20;1.88;;;;;;;;;;5053457;28;20048;-67
2023/12/14 05:02:09;;;;;;;4.60;2.20;;;;;;;;;;5050378;28;20119;-66
2023/12/14 05:04:34;;;;;;;8.00;2.28;;;;;;;;;;5052394;28;20060;-66
2023/12/14 05:06:59;;;;;;;9.15;2.20;;;;;;;;;;5052915;28;20061;-66
2023/12/14 05:09:25;;;;;;;14.13;2.63;;;;;;;;;;5053820;28;20082;-66
2023/12/14 05:11:50;;;;;;;5.32;2.33;;;;;;;;;;5052824;28;20025;-66
2023/12/14 05:14:15;;;;;;;15.43;3.08;;;;;;;;;;5053424;28;20033;-66
2023/12/14 05:16:41;;;;;;;6.60;1.88;;;;;;;;;;5063125;28;20169;-66
2023/12/14 05:19:06;;;;;;;8.70;2.33;;;;;;;;;;5054560;28;20037;-66
2023/12/14 05:21:31;;;;;;;7.35;2.40;;;;;;;;;;5052398;28;20079;-65
2023/12/14 05:23:57;;;;;;;8.68;2.08;;;;;;;;;;5062626;28;20032;-66
2023/12/14 05:26:22;;;;;;;5.53;2.05;;;;;;;;;;5052758;28;20036;-65
2023/12/14 05:28:47;;;;;;;9.30;2.20;;;;;;;;;;5059813;28;20048;-66
2023/12/14 05:31:13;;;;;;;11.57;2.22;;;;;;;;;;5053109;28;20072;-66
2023/12/14 05:33:39;;;;;;;10.68;1.95;;;;;;;;;;5055264;28;20472;-66
2023/12/14 05:36:08;;;;;;;4.90;2.15;;;;;;;;;;5052670;28;20037;-67
2023/12/14 05:38:34;;;;;;;9.85;2.67;;;;;;;;;;5050407;28;20480;-67
2023/12/14 05:40:59;;;;;;;6.70;1.65;;;;;;;;;;5045609;28;20045;-66
2023/12/14 05:43:25;;;;;;;8.43;2.67;;;;;;;;;;5053330;28;20067;-67
2023/12/14 05:45:50;;;;;;;9.07;2.08;;;;;;;;;;5056493;28;20025;-66
2023/12/14 05:48:15;;;;;;;15.75;2.08;;;;;;;;;;5054904;28;20041;-66
2023/12/14 05:50:41;;;;;;;11.82;2.00;;;;;;;;;;5052157;28;20037;-66
2023/12/14 05:53:06;;;;;;;5.57;2.10;;;;;;;;;;5052451;28;20043;-66
2023/12/14 05:55:31;;;;;;;8.43;2.03;;;;;;;;;;5053895;28;20033;-66
2023/12/14 05:57:57;;;;;;;8.75;2.08;;;;;;;;;;5050701;28;20032;-66
2023/12/14 06:00:22;;;;;;;7.10;2.28;;;;;;;;;;5053504;28;20147;-66
2023/12/14 06:02:47;;;;;;;10.07;2.05;;;;;;;;;;5047997;28;20045;-66
2023/12/14 06:05:13;;;;;;;5.00;1.88;;;;;;;;;;5056333;28;20041;-66
2023/12/14 06:07:38;;;;;;;5.82;2.22;;;;;;;;;;5047056;28;20025;-67
2023/12/14 06:10:04;;;;;;;7.25;1.90;;;;;;;;;;5047307;28;20120;-66
2023/12/14 06:12:30;;;;;;;14.10;2.28;;;;;;;;;;5050445;28;20076;-67
2023/12/14 06:14:55;;;;;;;5.22;2.25;;;;;;;;;;5047140;28;20040;-67
2023/12/14 06:17:20;;;;;;;10.70;2.38;;;;;;;;;;5051785;28;20033;-65
2023/12/14 06:19:45;;;;;;;3.53;1.80;;;;;;;;;;5051765;28;20037;-66
2023/12/14 06:22:11;;;;;;;4.55;1.90;;;;;;;;;;5051333;28;20028;-66
2023/12/14 06:24:36;;;;;;;5.85;1.85;;;;;;;;;;5055128;28;20480;-66
2023/12/14 06:27:02;;;;;;;8.77;2.13;;;;;;;;;;5051429;28;20526;-66
2023/12/14 06:29:27;;;;;;;14.88;2.22;;;;;;;;;;5053448;28;20029;-65
2023/12/14 06:31:53;;;;;;;5.13;2.13;;;;;;;;;;5060174;28;20045;-67
2023/12/14 06:34:18;;;;;;;6.10;2.33;;;;;;;;;;5051685;28;20043;-66
2023/12/14 06:36:46;;;;;;;7.82;2.25;;;;;;;;;;5051595;28;20025;-66
2023/12/14 06:39:12;;;;;;;9.20;2.10;;;;;;;;;;5052023;28;20115;-66
2023/12/14 06:41:37;;;;;;;12.25;3.03;;;;;;;;;;5049137;28;20124;-65
2023/12/14 06:44:03;;;;;;;4.63;2.17;;;;;;;;;;5051614;28;20029;-66
2023/12/14 06:46:28;;;;;;;11.10;1.95;;;;;;;;;;5052708;28;20120;-65
2023/12/14 06:48:55;;;;;;;12.55;2.88;;;;;;;;;;5051041;28;20465;-66
2023/12/14 06:51:20;;;;;;;9.20;2.20;;;;;;;;;;5051704;28;20029;-66
2023/12/14 06:53:47;;;;;;;6.75;2.60;;;;;;;;;;5051351;28;20049;-65
2023/12/14 06:56:12;;;;;;;4.70;2.00;;;;;;;;;;5054756;28;20120;-67
2023/12/14 06:58:43;;;;;;;6.40;2.90;;;;;;;;;;5046935;28;20108;-66
2023/12/14 07:01:13;;;;;;;7.47;2.60;;;;;;;;;;5051186;28;20514;-65
2023/12/14 07:03:44;;;;;;;11.40;3.03;;;;;;;;;;5051156;28;20041;-65
2023/12/14 07:06:12;;;;;;;7.15;3.00;;;;;;;;;;5049504;28;20105;-67
2023/12/14 07:08:37;;;;;;;12.90;3.35;;;;;;;;;;5047269;28;20440;-66
2023/12/14 07:11:03;;;;;;;10.15;2.95;;;;;;;;;;5052903;28;20056;-66
2023/12/14 07:13:28;;;;;;;10.82;3.35;;;;;;;;;;5043348;28;20092;-66
2023/12/14 07:15:53;;;;;;;7.78;2.63;;;;;;;;;;5051721;28;20444;-66
2023/12/14 07:18:19;;;;;;;11.40;3.00;;;;;;;;;;5054359;28;20068;-66
2023/12/14 07:20:44;;;;;;;8.00;3.40;;;;;;;;;;5054010;28;20108;-65
2023/12/14 07:23:10;;;;;;;12.38;3.20;;;;;;;;;;5050682;28;20098;-65
2023/12/14 07:25:35;;;;;;;9.57;2.65;;;;;;;;;;5051129;28;20072;-66
2023/12/14 07:28:00;;;;;;;13.75;2.97;;;;;;;;;;5050559;28;20086;-67
2023/12/14 07:30:26;;;;;;;11.93;2.53;;;;;;;;;;5052753;28;20049;-66
2023/12/14 07:32:52;;;;;;;6.30;1.85;;;;;;;;;;5056889;28;20090;-67
2023/12/14 07:35:17;;;;;;;5.68;1.95;;;;;;;;;;5057486;28;20017;-67
2023/12/14 07:37:43;;;;;;;20.27;2.65;;;;;;;;;;5060574;28;20036;-66
2023/12/14 07:40:09;;;;;;;8.23;2.47;;;;;;;;;;5059368;28;20032;-67
2023/12/14 07:42:34;;;;;;;7.32;2.42;;;;;;;;;;5059699;28;20024;-66
2023/12/14 07:44:59;;;;;;;11.77;2.58;;;;;;;;;;5056848;28;20032;-67
2023/12/14 07:47:25;;;;;;;14.20;3.22;;;;;;;;;;5059512;28;20067;-67
2023/12/14 07:49:50;;;;;;;6.80;2.55;;;;;;;;;;5059662;28;20467;-66
2023/12/14 07:52:15;;;;;;;8.43;2.20;;;;;;;;;;5060412;28;20425;-67
2023/12/14 07:54:41;;;;;;;5.38;1.98;;;;;;;;;;5058975;28;20067;-66
2023/12/14 07:57:07;;;;;;;5.88;2.53;;;;;;;;;;5057117;28;20416;-66
2023/12/14 07:59:32;;;;;;;10.35;2.33;;;;;;;;;;5058728;28;20078;-67
2023/12/14 08:01:58;;;;;;;5.82;2.35;;;;;;;;;;5056875;28;20024;-68
2023/12/14 08:04:24;;;;;;;8.25;2.70;;;;;;;;;;5054992;28;20033;-67
2023/12/14 08:06:49;;;;;;;5.35;2.28;;;;;;;;;;5062962;28;20037;-66
2023/12/14 08:09:14;;;;;;;6.75;3.10;;;;;;;;;;5060949;28;20040;-66
2023/12/14 08:11:40;;;;;;;10.95;3.08;;;;;;;;;;5056044;28;20024;-67
2023/12/14 08:14:05;;;;;;;13.18;3.22;;;;;;;;;;5051011;28;20036;-66
2023/12/14 08:16:31;;;;;;;10.70;2.53;;;;;;;;;;5053593;28;20385;-66
2023/12/14 08:18:56;;;;;;;6.40;3.58;;;;;;;;;;5052938;28;20497;-67
2023/12/14 08:21:21;;;;;;;23.85;5.93;;;;;;;;;;5053751;28;20140;-66
2023/12/14 08:23:47;;;;;;;10.88;3.40;;;;;;;;;;5057461;28;20106;-66
2023/12/14 08:26:12;;;;;;;11.60;2.78;;;;;;;;;;5057748;28;20033;-66
2023/12/14 08:28:41;;;;;;;12.82;3.13;;;;;;;;;;5055870;28;20118;-66
2023/12/14 08:31:08;;;;;;;13.07;3.28;;;;;;;;;;5057126;28;20045;-66
2023/12/14 08:33:33;;;;;;;15.73;3.08;;;;;;;;;;5055330;28;20428;-66
2023/12/14 08:35:58;;;;;;;10.13;3.22;;;;;;;;;;5056938;28;20032;-67
2023/12/14 08:38:24;;;;;;;14.70;3.63;;;;;;;;;;5058815;28;20036;-66
2023/12/14 08:40:50;;;;;;;18.38;3.90;;;;;;;;;;5056528;28;20033;-66
2023/12/14 08:43:16;;;;;;;11.82;3.92;;;;;;;;;;5047978;28;20064;-66
2023/12/14 08:45:42;;;;;;;8.52;2.88;;;;;;;;;;5055529;28;20153;-66
2023/12/14 08:48:07;;;;;;;14.15;2.97;;;;;;;;;;5056298;28;20452;-66
2023/12/14 08:50:32;;;;;;;7.63;2.63;;;;;;;;;;5063014;28;20059;-66
2023/12/14 08:53:01;;;;;;;7.40;3.10;;;;;;;;;;5064751;28;20025;-66
2023/12/14 08:55:27;;;;;;;9.68;2.95;;;;;;;;;;5057007;28;20028;-66
2023/12/14 08:57:52;;;;;;;10.20;3.72;;;;;;;;;;5047103;28;20098;-67
2023/12/14 09:00:19;;;;;;;9.50;3.05;;;;;;;;;;5052786;28;20504;-68
2023/12/14 09:02:45;;;;;;;11.93;2.80;;;;;;;;;;5059060;28;20040;-67
2023/12/14 09:05:12;;;;;;;13.68;3.33;;;;;;;;;;5055327;28;20135;-66
2023/12/14 09:07:37;;;;;;;7.43;2.90;;;;;;;;;;5063641;28;20024;-67
2023/12/14 09:10:03;;;;;;;9.18;2.60;;;;;;;;;;5056837;28;20383;-67
2023/12/14 09:12:28;;;;;;;10.15;2.63;;;;;;;;;;5051990;28;20645;-68
2023/12/14 09:14:53;;;;;;;15.52;2.95;;;;;;;;;;5061778;28;20020;-66
2023/12/14 09:17:19;;;;;;;11.65;2.92;;;;;;;;;;5051556;28;20021;-67
2023/12/14 09:19:44;;;;;;;11.43;2.60;;;;;;;;;;5052288;28;20481;-66
2023/12/14 09:22:09;;;;;;;17.67;2.85;;;;;;;;;;5055501;28;20508;-66
2023/12/14 09:24:35;;;;;;;12.20;2.38;;;;;;;;;;5057942;28;20396;-66
2023/12/14 09:27:00;;;;;;;10.68;3.10;;;;;;;;;;5052041;28;20626;-66
2023/12/14 09:29:25;;;;;;;12.07;2.63;;;;;;;;;;5046242;28;20463;-66
2023/12/14 09:31:51;;;;;;;11.57;2.85;;;;;;;;;;5050411;28;20495;-67
2023/12/14 09:34:17;;;;;;;12.30;2.78;;;;;;;;;;5049280;28;20480;-67
2023/12/14 09:36:42;;;;;;;8.63;2.90;;;;;;;;;;5054582;28;20037;-66
2023/12/14 09:39:11;;;;;;;8.82;2.97;;;;;;;;;;5047644;28;20036;-67
2023/12/14 09:41:38;;;;;;;8.27;2.90;;;;;;;;;;5049419;28;20044;-66
2023/12/14 09:44:05;;;;;;;10.48;3.00;;;;;;;;;;5049067;28;20039;-66
2023/12/14 09:46:30;;;;;;;7.32;2.67;;;;;;;;;;5054965;28;20120;-66
2023/12/14 09:48:57;;;;;;;11.23;2.85;;;;;;;;;;5035113;28;20050;-66
2023/12/14 09:51:23;;;;;;;11.70;2.67;;;;;;;;;;5050923;28;20495;-66
2023/12/14 09:53:49;;;;;;;6.65;2.50;;;;;;;;;;5052553;28;20041;-67
2023/12/14 09:56:14;;;;;;;10.15;3.10;;;;;;;;;;5043263;28;20045;-67
2023/12/14 09:58:39;;;;;;;10.73;2.67;;;;;;;;;;5050402;28;20473;-66
2023/12/14 10:01:27;;;;;;;10.85;2.83;;;;;;;;;;5027899;28;20810;-67
2023/12/14 10:04:08;;;;;;;9.23;2.97;;;;;;;;;;5042229;28;20378;-67
2023/12/14 10:06:33;;;;;;;9.23;3.40;;;;;;;;;;5045968;28;20036;-67
2023/12/14 10:08:59;;;;;;;7.35;5.30;;;;;;;;;;5047639;28;20045;-67
2023/12/14 10:11:24;;;;;;;9.90;3.50;;;;;;;;;;5047655;28;20111;-67
2023/12/14 10:13:49;;;;;;;14.90;5.07;;;;;;;;;;5046163;28;20104;-66
2023/12/14 10:16:32;;;;;;;7.45;4.32;;;;;;;;;;5048335;28;20037;-67
2023/12/14 10:18:58;;;;;;;10.63;4.43;;;;;;;;;;5048153;28;20582;-66
2023/12/14 10:21:26;;;;;;;9.82;2.92;;;;;;;;;;5047105;28;20047;-67
2023/12/14 10:23:54;;;;;;;6.00;3.22;;;;;;;;;;5040183;28;20043;-67
2023/12/14 10:26:23;;;;;;;10.90;2.80;;;;;;;;;;5047198;28;20044;-66
2023/12/14 10:28:48;;;;;;;7.38;3.05;;;;;;;;;;5047519;28;20404;-67
2023/12/14 10:31:15;;;;;;;6.10;2.97;;;;;;;;;;5046104;28;20132;-67
2023/12/14 10:33:40;;;;;;;9.85;2.50;;;;;;;;;;5046103;28;20408;-67
2023/12/14 10:36:08;;;;;;;10.18;2.45;;;;;;;;;;5047300;28;20091;-66
2023/12/14 10:38:34;;;;;;;4.03;2.35;;;;;;;;;;5046239;28;20040;-67
2023/12/14 10:40:59;;;;;;;6.53;2.70;;;;;;;;;;5046656;28;20044;-67
2023/12/14 10:43:25;;;;;;;7.40;2.88;;;;;;;;;;5045409;28;20045;-66
2023/12/14 10:45:53;;;;;;;9.40;2.28;;;;;;;;;;5045560;28;20033;-67
2023/12/14 10:48:20;;;;;;;6.47;2.20;;;;;;;;;;5046235;28;20040;-67
2023/12/14 10:50:46;;;;;;;7.63;2.40;;;;;;;;;;5045949;28;20047;-67
2023/12/14 10:53:12;;;;;;;3.78;2.00;;;;;;;;;;5047058;28;20429;-67
2023/12/14 10:55:42;;;;;;;7.05;2.13;;;;;;;;;;5047342;28;20064;-67
2023/12/14 10:58:09;;;;;;;4.93;1.92;;;;;;;;;;5045476;28;20112;-66
2023/12/14 11:00:36;;;;;;;4.30;1.98;;;;;;;;;;5047085;28;20492;-67
2023/12/14 11:03:04;;;;;;;3.92;1.92;;;;;;;;;;5046398;28;20029;-67
2023/12/14 11:05:32;;;;;;;9.63;2.28;;;;;;;;;;5045504;28;20041;-67
2023/12/14 11:08:09;;;;;;;9.27;2.40;;;;;;;;;;5045958;28;20064;-67
2023/12/14 11:10:41;;;;;;;5.75;2.50;;;;;;;;;;5045901;28;20051;-66
2023/12/14 11:13:12;;;;;;;9.27;3.40;;;;;;;;;;5045172;28;20033;-66
2023/12/14 11:15:38;;;;;;;7.65;2.67;;;;;;;;;;5046849;28;20083;-67
2023/12/14 11:18:12;;;;;;;12.88;2.80;;;;;;;;;;5046645;28;20415;-67
2023/12/14 11:20:56;;;;;;;7.55;2.28;;;;;;;;;;5046986;28;20484;-67
2023/12/14 11:23:29;;;;;;;9.27;2.05;;;;;;;;;;5046349;28;20033;-67
2023/12/14 11:25:58;;;;;;;4.13;2.08;;;;;;;;;;5046499;28;20111;-67
2023/12/14 11:28:24;;;;;;;8.05;1.92;;;;;;;;;;5045240;28;20033;-67
2023/12/14 11:30:49;;;;;;;9.23;2.72;;;;;;;;;;5044045;28;20052;-67
2023/12/14 11:33:16;;;;;;;8.07;3.70;;;;;;;;;;5045113;28;20039;-67
2023/12/14 11:35:42;;;;;;;9.98;4.47;;;;;;;;;;5046737;28;20033;-67
2023/12/14 11:38:12;;;;;;;13.05;3.72;;;;;;;;;;5046639;28;20040;-67
2023/12/14 11:40:41;;;;;;;13.07;4.47;;;;;;;;;;5045556;28;20384;-67
2023/12/14 11:43:08;;;;;;;7.43;3.17;;;;;;;;;;5044467;28;20370;-67
2023/12/14 11:45:34;;;;;;;5.95;2.90;;;;;;;;;;5044496;28;20526;-68
2023/12/14 11:48:01;;;;;;;7.15;2.60;;;;;;;;;;5044834;28;20059;-68
2023/12/14 11:50:27;;;;;;;8.55;3.30;;;;;;;;;;5043713;28;20031;-67
2023/12/14 11:52:53;;;;;;;6.07;3.03;;;;;;;;;;5043458;28;20404;-67
2023/12/14 11:55:20;;;;;;;5.38;2.97;;;;;;;;;;5043732;28;20626;-66
2023/12/14 11:57:46;;;;;;;7.00;3.83;;;;;;;;;;5044870;28;20041;-67
2023/12/14 12:00:12;;;;;;;5.43;3.17;;;;;;;;;;5045919;28;20037;-67
2023/12/14 12:02:38;;;;;;;6.55;3.05;;;;;;;;;;5045535;28;20025;-68
2023/12/14 12:05:03;;;;;;;6.10;2.90;;;;;;;;;;5045047;28;20040;-68
2023/12/14 12:07:30;;;;;;;8.05;2.53;;;;;;;;;;5046419;28;20083;-67
2023/12/14 12:09:55;;;;;;;5.60;2.50;;;;;;;;;;5045317;28;20877;-67
2023/12/14 12:12:21;;;;;;;12.68;5.82;;;;;;;;;;5045304;28;20032;-67
2023/12/14 12:14:48;;;;;;;5.93;2.60;;;;;;;;;;5043367;28;20048;-67
2023/12/14 12:17:15;;;;;;;5.25;2.75;;;;;;;;;;5036277;28;20029;-67
2023/12/14 12:19:42;;;;;;;6.03;3.17;;;;;;;;;;5045650;28;20465;-68
2023/12/14 12:22:07;;;;;;;6.88;3.50;;;;;;;;;;5045390;28;20033;-67
2023/12/14 12:24:33;;;;;;;5.63;2.63;;;;;;;;;;5045836;28;20079;-67
2023/12/14 12:26:58;;;;;;;5.25;2.30;;;;;;;;;;5044064;28;20033;-67
2023/12/14 12:29:24;;;;;;;8.27;2.35;;;;;;;;;;5045702;28;20091;-67
2023/12/14 12:31:49;;;;;;;5.20;2.70;;;;;;;;;;5045765;28;20424;-68
2023/12/14 12:34:15;;;;;;;8.05;3.25;;;;;;;;;;5044864;28;20144;-67
2023/12/14 12:36:40;;;;;;;5.47;3.17;;;;;;;;;;5044820;28;20041;-67
2023/12/14 12:39:06;;;;;;;6.53;2.28;;;;;;;;;;5044453;28;20037;-67
2023/12/14 12:41:33;;;;;;;6.13;1.88;;;;;;;;;;5044381;28;20503;-67
2023/12/14 12:43:59;;;;;;;5.63;1.90;;;;;;;;;;5044024;28;20032;-67
2023/12/14 12:46:24;;;;;;;7.68;2.53;;;;;;;;;;5050940;28;20029;-67
2023/12/14 12:48:51;;;;;;;4.05;1.77;;;;;;;;;;5046339;28;20648;-68
2023/12/14 12:51:16;;;;;;;3.83;1.98;;;;;;;;;;5045848;28;20217;-67
2023/12/14 12:53:42;;;;;;;5.00;2.20;;;;;;;;;;5034003;28;20021;-67
2023/12/14 12:56:07;;;;;;;5.47;1.95;;;;;;;;;;5040163;28;20116;-67
2023/12/14 12:58:33;;;;;;;5.15;1.83;;;;;;;;;;5038027;28;20124;-67
2023/12/14 13:00:58;;;;;;;5.53;1.70;;;;;;;;;;5047347;28;20029;-67
2023/12/14 13:03:23;;;;;;;5.93;1.95;;;;;;;;;;5045483;28;20388;-67
2023/12/14 13:05:49;;;;;;;2.33;1.30;;;;;;;;;;5039279;28;20095;-67
2023/12/14 13:08:14;;;;;;;5.75;1.00;;;;;;;;;;5046655;28;20458;-67
2023/12/14 13:10:40;;;;;;;4.53;1.20;;;;;;;;;;5048197;28;20115;-68
2023/12/14 13:13:07;;;;;;;1.63;0.90;;;;;;;;;;5048782;28;20061;-67
2023/12/14 13:15:32;;;;;;;2.40;1.02;;;;;;;;;;5049289;28;20025;-67
2023/12/14 13:17:58;;;;;;;3.17;0.80;;;;;;;;;;5046297;28;20846;-67
2023/12/14 13:20:23;;;;;;;2.20;1.10;;;;;;;;;;5046486;28;20041;-67
2023/12/14 13:22:49;;;;;;;1.92;0.93;;;;;;;;;;5053705;28;20036;-67
2023/12/14 13:25:14;;;;;;;8.70;1.40;;;;;;;;;;5048445;28;20048;-67
2023/12/14 13:27:40;;;;;;;5.07;1.00;;;;;;;;;;5042279;28;20055;-68
2023/12/14 13:30:07;;;;;;;3.03;1.13;;;;;;;;;;5044810;28;20480;-68
2023/12/14 13:32:32;;;;;;;3.90;1.30;;;;;;;;;;5050365;28;20036;-68
2023/12/14 13:34:57;;;;;;;5.07;0.98;;;;;;;;;;5048685;28;20036;-67
2023/12/14 13:37:23;;;;;;;2.58;0.90;;;;;;;;;;5039006;28;20481;-68
2023/12/14 13:39:48;;;;;;;7.85;1.10;;;;;;;;;;5048506;28;20041;-67
2023/12/14 13:42:15;;;;;;;2.40;0.82;;;;;;;;;;5049932;28;20037;-68
2023/12/14 13:44:41;;;;;;;4.30;0.98;;;;;;;;;;5049648;28;20032;-68
2023/12/14 13:47:06;;;;;;;2.58;0.73;;;;;;;;;;5048000;28;20472;-68
2023/12/14 13:49:33;;;;;;;8.27;1.02;;;;;;;;;;5045967;28;20047;-67
2023/12/14 13:51:58;;;;;;;6.00;1.00;;;;;;;;;;5047925;28;20037;-67
2023/12/14 13:54:23;;;;;;;3.35;0.98;;;;;;;;;;5045185;28;20029;-68
2023/12/14 13:56:49;;;;;;;2.03;0.82;;;;;;;;;;5048129;28;20915;-67
2023/12/14 13:59:14;;;;;;;3.22;0.93;;;;;;;;;;5048447;28;20037;-67
2023/12/14 14:01:39;;;;;;;4.03;1.08;;;;;;;;;;5044347;28;20097;-67
2023/12/14 14:04:05;;;;;;;4.18;0.90;;;;;;;;;;5048227;28;20080;-67
2023/12/14 14:06:30;;;;;;;2.28;1.00;;;;;;;;;;5049034;28;20037;-67
2023/12/14 14:08:56;;;;;;;3.42;0.90;;;;;;;;;;5047258;28;20044;-68
2023/12/14 14:11:22;;;;;;;4.78;1.10;;;;;;;;;;5047636;28;20037;-67
2023/12/14 14:13:48;;;;;;;5.35;1.10;;;;;;;;;;5046214;28;20040;-67
2023/12/14 14:16:13;;;;;;;5.80;1.13;;;;;;;;;;5047633;28;20052;-68
2023/12/14 14:18:38;;;;;;;5.25;1.13;;;;;;;;;;5046624;28;20044;-67
2023/12/14 14:21:07;;;;;;;3.63;0.98;;;;;;;;;;5046162;28;20387;-67
2023/12/14 14:23:33;;;;;;;6.13;1.10;;;;;;;;;;5047329;28;20041;-67
2023/12/14 14:25:58;;;;;;;5.28;1.30;;;;;;;;;;5047676;28;20044;-67
2023/12/14 14:28:23;;;;;;;3.63;1.13;;;;;;;;;;5046446;28;20059;-67
2023/12/14 14:30:49;;;;;;;6.05;1.20;;;;;;;;;;5047415;28;20049;-67